.
WxDataArchive / Data Records for 2006-06-24
2006-06-23 June 2006 2006-06-25

Data Records for Saturday, 24 June 2006

Time	Temp	Chill	HIndex	Humid	Dewpt	 Wind 	HiWind	WindDir	Rain 	Barom 
-----	----	-----	------	-----	-----	------	------	-------	-----	----- 
00:00	67.3	67.3	67.3	82	61.6	0	1	45	0.00	30.071 
00:05	67.3	67.3	67.3	81	61.3	0	1	45	0.00	30.071 
00:10	67.1	67.1	67.1	82	61.4	0	1	45	0.00	30.071 
00:15	67.1	67.1	67.1	81	61.1	0	1	45	0.00	30.071 
00:20	66.9	66.9	66.9	81	60.9	0	3	112	0.00	30.071 
00:25	66.9	66.9	66.9	81	60.9	0	0	---	0.00	30.071 
00:30	66.8	66.8	66.8	80	60.4	0	2	112	0.00	30.070 
00:35	66.8	66.8	66.8	81	60.8	0	1	112	0.00	30.070 
00:40	66.8	66.8	66.8	80	60.4	0	2	112	0.00	30.070 
00:45	66.8	66.8	66.8	80	60.4	0	1	112	0.00	30.071 
00:50	66.8	66.8	66.8	79	60.1	0	1	112	0.00	30.071 
00:55	66.9	66.9	66.9	79	60.2	0	3	112	0.00	30.071 
01:00	66.9	66.9	66.9	78	59.8	0	2	112	0.00	30.071 
01:05	66.9	66.9	66.9	78	59.8	0	2	112	0.00	30.071 
01:10	66.9	66.9	66.9	77	59.4	0	2	112	0.00	30.071 
01:15	66.9	66.9	66.9	77	59.4	0	2	112	0.00	30.071 
01:20	66.9	66.9	66.9	77	59.4	0	2	112	0.00	30.071 
01:25	66.8	66.8	66.8	79	60.1	0	0	---	0.00	30.071 
01:30	66.4	66.4	66.4	78	59.3	0	1	112	0.00	30.069 
01:35	66.3	66.3	66.3	79	59.6	0	0	---	0.00	30.069 
01:40	66.1	66.1	66.1	80	59.7	0	1	112	0.00	30.069 
01:45	65.8	65.8	65.8	80	59.5	0	1	112	0.00	30.069 
01:50	65.6	65.6	65.6	80	59.3	0	0	---	0.00	30.069 
01:55	65.3	65.3	65.3	81	59.3	0	0	---	0.00	30.069 
02:00	65.0	65.0	65.0	81	59.0	0	0	---	0.00	30.067 
02:05	64.8	64.8	64.8	81	58.8	0	0	---	0.00	30.067 
02:10	64.5	64.5	64.5	82	58.9	0	0	---	0.00	30.067 
02:15	64.3	64.3	64.3	82	58.7	0	0	---	0.00	30.063 
02:20	64.0	64.0	64.0	82	58.4	0	0	---	0.00	30.063 
02:25	63.9	63.9	63.9	83	58.6	0	0	---	0.00	30.063 
02:30	63.7	63.7	63.7	83	58.4	0	0	---	0.00	30.064 
02:35	63.5	63.5	63.5	83	58.2	0	0	---	0.00	30.064 
02:40	63.4	63.4	63.4	84	58.5	0	1	112	0.00	30.064 
02:45	63.4	63.4	63.4	84	58.5	0	1	112	0.00	30.067 
02:50	63.4	63.4	63.4	83	58.1	0	1	112	0.00	30.067 
02:55	63.4	63.4	63.4	83	58.1	0	1	112	0.00	30.067 
03:00	63.4	63.4	63.4	83	58.1	0	1	112	0.00	30.070 
03:05	63.4	63.4	63.4	83	58.1	0	0	---	0.00	30.070 
03:10	63.2	63.2	63.2	83	57.9	0	2	112	0.00	30.070 
03:15	63.2	63.2	63.2	83	57.9	0	1	112	0.00	30.063 
03:20	63.2	63.2	63.2	83	57.9	0	1	112	0.00	30.063 
03:25	63.1	63.1	63.1	83	57.8	0	1	112	0.00	30.063 
03:30	63.1	63.1	63.1	82	57.5	0	1	112	0.00	30.059 
03:35	63.2	63.2	63.2	82	57.6	1	3	90	0.00	30.059 
03:40	63.4	63.4	63.4	81	57.5	1	3	90	0.00	30.059 
03:45	63.4	63.4	63.4	81	57.5	0	2	90	0.00	30.057 
03:50	63.2	63.2	63.2	82	57.6	0	2	90	0.00	30.057 
03:55	63.1	63.1	63.1	82	57.5	0	1	90	0.00	30.057 
04:00	63.1	63.1	63.1	82	57.5	0	2	90	0.00	30.056 
04:05	62.9	62.9	62.9	82	57.3	0	1	90	0.00	30.056 
04:10	62.7	62.7	62.7	82	57.1	0	1	90	0.00	30.056 
04:15	62.7	62.7	62.7	82	57.1	0	2	90	0.00	30.056 
04:20	62.6	62.6	62.6	83	57.4	0	1	90	0.00	30.056 
04:25	62.6	62.6	62.6	83	57.4	0	3	90	0.00	30.056 
04:30	62.6	62.6	62.6	83	57.4	0	2	90	0.00	30.055 
04:35	62.4	62.4	62.4	84	57.5	0	1	90	0.00	30.055 
04:40	62.3	62.3	62.3	84	57.4	0	1	90	0.00	30.055 
04:45	62.1	62.1	62.1	85	57.5	0	1	90	0.00	30.056 
04:50	62.0	62.0	62.0	85	57.4	0	1	90	0.00	30.056 
04:55	61.8	61.8	61.8	86	57.6	0	1	90	0.00	30.056 
05:00	61.8	61.8	61.8	86	57.6	0	2	90	0.00	30.056 
05:05	61.8	61.8	61.8	86	57.6	0	2	90	0.00	30.056 
05:10	61.8	61.8	61.8	87	57.9	0	2	90	0.00	30.056 
05:15	61.6	61.6	61.6	87	57.7	0	2	90	0.00	30.058 
05:20	61.6	61.6	61.6	87	57.7	1	2	90	0.00	30.058 
05:25	61.6	61.6	61.6	88	58.0	1	3	90	0.00	30.058 
05:30	61.6	61.6	61.6	88	58.0	1	4	90	0.00	30.064 
05:35	61.5	61.5	61.5	89	58.2	1	3	90	0.00	30.064 
05:40	61.6	61.6	61.6	89	58.3	1	4	90	0.00	30.064 
05:45	61.6	61.6	61.6	90	58.6	2	5	90	0.00	30.066 
05:50	61.8	61.8	61.8	91	59.1	2	6	90	0.00	30.066 
05:55	62.0	62.0	62.0	91	59.3	2	5	90	0.00	30.066 
06:00	62.0	62.0	62.0	91	59.3	2	4	90	0.00	30.067 
06:05	62.0	62.0	62.0	91	59.3	1	5	90	0.00	30.067 
06:10	62.1	62.1	62.1	91	59.4	2	4	90	0.00	30.067 
06:15	62.0	62.0	62.0	91	59.3	2	3	90	0.00	30.072 
06:20	61.8	61.8	61.8	91	59.1	1	3	90	0.00	30.072 
06:25	61.6	61.6	61.6	92	59.2	1	4	90	0.00	30.072 
06:30	61.6	61.6	61.6	92	59.2	1	3	90	0.00	30.075 
06:35	61.6	61.6	61.6	92	59.2	1	3	90	0.00	30.075 
06:40	61.6	61.6	61.6	92	59.2	1	3	90	0.00	30.075 
06:45	61.6	61.6	61.6	91	58.9	2	5	90	0.00	30.079 
06:50	61.8	61.8	61.8	90	58.8	2	5	68	0.00	30.079 
06:55	62.0	62.0	62.0	89	58.7	2	4	68	0.00	30.079 
07:00	62.0	62.0	62.0	89	58.7	2	6	90	0.00	30.086 
07:05	62.1	62.1	62.1	89	58.8	2	5	90	0.00	30.086 
07:10	62.1	62.1	62.1	88	58.5	2	4	90	0.00	30.086 
07:15	62.1	62.1	62.1	88	58.5	1	5	90	0.00	30.093 
07:20	62.1	62.1	62.1	88	58.5	1	4	90	0.00	30.093 
07:25	62.1	62.1	62.1	88	58.5	1	4	90	0.00	30.093 
07:30	62.1	62.1	62.1	87	58.2	2	5	68	0.00	30.100 
07:35	62.1	62.1	62.1	87	58.2	2	4	90	0.00	30.100 
07:40	62.3	62.3	62.3	87	58.4	2	3	68	0.00	30.100 
07:45	62.4	62.4	62.4	86	58.2	2	5	90	0.00	30.103 
07:50	62.7	62.7	62.7	85	58.1	2	6	90	0.00	30.103 
07:55	62.9	62.9	62.9	84	58.0	2	5	90	0.00	30.103 
08:00	63.1	63.1	63.1	85	58.5	2	4	90	0.00	30.104 
08:05	63.2	63.2	63.2	84	58.3	1	5	90	0.00	30.104 
08:10	63.2	63.2	63.2	85	58.6	1	3	90	0.00	30.104 
08:15	63.4	63.4	63.4	84	58.5	1	3	90	0.00	30.107 
08:20	63.5	63.5	63.5	84	58.6	1	3	90	0.00	30.107 
08:25	63.5	63.5	63.5	84	58.6	2	5	112	0.00	30.107 
08:30	63.7	63.7	63.7	83	58.4	1	4	68	0.00	30.110 
08:35	64.0	64.0	64.0	82	58.4	2	4	112	0.00	30.110 
08:40	64.7	64.7	64.7	80	58.4	3	6	90	0.00	30.110 
08:45	65.3	65.3	65.3	80	59.0	2	5	68	0.00	30.109 
08:50	65.8	65.8	65.8	79	59.1	3	4	90	0.00	30.109 
08:55	66.1	66.1	66.1	78	59.0	2	5	90	0.00	30.109 
09:00	66.6	66.6	66.6	77	59.2	2	6	90	0.00	30.111 
09:05	66.6	66.6	66.6	75	58.4	3	5	90	0.00	30.111 
09:10	66.8	66.8	66.8	76	59.0	2	5	90	0.00	30.111 
09:15	67.3	67.3	67.3	74	58.7	2	5	90	0.00	30.119 
09:20	67.6	67.6	67.6	73	58.6	2	6	90	0.00	30.119 
09:25	67.6	67.6	67.6	75	59.4	3	5	90	0.00	30.119 
09:30	67.6	67.6	67.6	74	59.0	3	5	90	0.00	30.121 
09:35	67.9	67.9	67.9	74	59.3	3	5	90	0.00	30.121 
09:40	68.4	68.4	68.4	73	59.4	2	7	90	0.00	30.121 
09:45	68.6	68.6	68.6	72	59.2	2	5	90	0.00	30.122 
09:50	68.8	68.8	68.8	73	59.8	2	5	90	0.00	30.122 
09:55	69.3	69.3	69.3	73	60.3	2	4	112	0.00	30.122 
10:00	69.3	69.3	69.3	72	59.9	3	6	90	0.00	30.121 
10:05	69.1	69.1	69.1	69	58.5	3	5	90	0.00	30.121 
10:10	69.8	69.8	69.8	71	60.0	2	5	90	0.00	30.121 
10:15	70.1	70.1	70.1	70	59.8	3	6	90	0.00	30.125 
10:20	70.3	70.3	70.3	71	60.4	3	6	112	0.00	30.125 
10:25	70.6	70.6	70.6	69	59.9	2	5	135	0.00	30.125 
10:30	70.8	70.8	70.8	70	60.5	3	5	90	0.00	30.119 
10:35	71.1	71.1	71.1	70	60.8	2	5	112	0.00	30.119 
10:40	71.3	71.3	71.3	68	60.2	2	6	90	0.00	30.119 
10:45	71.3	71.3	71.3	69	60.6	3	6	90	0.00	30.119 
10:50	71.3	71.3	71.3	70	61.0	2	5	90	0.00	30.119 
10:55	71.1	71.1	71.1	70	60.8	3	6	90	0.00	30.119 
11:00	70.9	70.9	70.9	70	60.6	3	6	90	0.00	30.118 
11:05	71.1	71.1	71.1	70	60.8	2	4	68	0.00	30.118 
11:10	71.1	71.1	71.1	70	60.8	2	5	90	0.00	30.118 
11:15	71.3	71.3	71.3	69	60.6	2	5	90	0.00	30.120 
11:20	71.5	71.5	71.5	70	61.2	2	6	90	0.00	30.120 
11:25	71.6	71.6	71.6	69	60.9	2	4	112	0.00	30.120 
11:30	71.5	71.5	71.5	70	61.2	2	5	90	0.00	30.120 
11:35	71.6	71.6	71.6	69	60.9	2	5	112	0.00	30.120 
11:40	72.0	72.0	72.0	68	60.8	1	4	112	0.00	30.120 
11:45	72.1	72.1	72.1	68	60.9	1	4	135	0.00	30.120 
11:50	72.3	72.3	72.3	67	60.7	2	4	90	0.00	30.120 
11:55	72.1	72.1	72.1	67	60.5	2	5	90	0.00	30.120 
12:00	72.1	72.1	72.1	70	61.8	3	6	90	0.00	30.118 
12:05	72.7	72.7	72.7	67	61.1	2	6	90	0.00	30.118 
12:10	72.7	72.7	72.7	67	61.1	2	6	112	0.00	30.118 
12:15	72.3	72.3	72.3	66	60.3	2	5	90	0.00	30.120 
12:20	73.0	73.0	73.0	66	61.0	1	3	90	0.00	30.120 
12:25	73.3	73.3	73.3	66	61.2	1	4	90	0.00	30.120 
12:30	73.9	73.9	73.9	64	60.9	1	3	112	0.00	30.120 
12:35	74.2	74.2	74.2	64	61.2	1	3	112	0.00	30.120 
12:40	74.2	74.2	74.2	64	61.2	1	4	90	0.00	30.120 
12:45	73.9	73.9	73.9	64	60.9	2	5	90	0.00	30.117 
12:50	74.0	74.0	74.0	65	61.5	1	4	90	0.00	30.117 
12:55	74.7	74.7	74.7	65	62.1	1	3	90	0.00	30.117 
13:00	75.1	75.1	77.2	64	62.1	2	4	90	0.00	30.115 
13:05	75.6	75.6	77.5	66	63.4	2	4	90	0.00	30.115 
13:10	76.0	76.0	78.0	61	61.6	1	4	68	0.00	30.115 
13:15	76.5	76.5	78.4	59	61.1	2	5	90	0.00	30.115 
13:20	76.3	76.3	78.2	59	60.9	0	4	90	0.00	30.115 
13:25	76.1	76.1	78.1	61	61.7	1	3	90	0.00	30.115 
13:30	76.1	76.1	78.1	61	61.7	2	6	90	0.00	30.116 
13:35	76.5	76.5	78.4	60	61.6	2	4	90	0.00	30.116 
13:40	77.4	77.4	79.1	60	62.4	1	4	90	0.00	30.116 
13:45	77.2	77.2	78.9	58	61.3	2	5	112	0.00	30.115 
13:50	77.4	77.4	79.2	62	63.3	0	4	112	0.00	30.115 
13:55	77.2	77.2	78.9	58	61.3	2	4	90	0.00	30.115 
14:00	76.3	76.3	78.2	58	60.4	3	6	90	0.00	30.109 
14:05	76.0	76.0	78.0	60	61.1	2	5	112	0.00	30.109 
14:10	75.8	75.8	77.9	60	60.9	2	5	90	0.00	30.109 
14:15	76.5	76.5	78.4	62	62.5	0	3	90	0.00	30.106 
14:20	77.2	77.2	78.9	58	61.3	2	6	90	0.00	30.106 
14:25	77.0	77.0	78.8	58	61.1	3	5	90	0.00	30.106 
14:30	76.1	76.1	78.1	59	60.7	1	4	90	0.00	30.105 
14:35	76.1	76.1	78.1	58	60.2	2	5	90	0.00	30.105 
14:40	76.7	76.7	78.5	60	61.7	1	3	90	0.00	30.105 
14:45	76.8	76.8	78.6	57	60.4	0	1	90	0.00	30.100 
14:50	76.8	76.8	78.6	57	60.4	0	1	90	0.00	30.100 
14:55	77.4	77.4	79.1	57	61.0	3	5	112	0.00	30.100 
15:00	77.6	77.6	79.2	55	60.1	1	3	112	0.00	30.092 
15:05	78.1	78.1	79.6	56	61.1	1	4	112	0.00	30.092 
15:10	78.6	78.6	79.7	51	58.9	1	4	90	0.00	30.092 
15:15	78.6	78.6	80.0	56	61.6	1	4	112	0.00	30.084 
15:20	78.6	78.6	79.7	51	58.9	1	3	90	0.00	30.084 
15:25	78.5	78.5	79.7	52	59.4	2	5	90	0.00	30.084 
15:30	78.5	78.5	79.9	56	61.5	2	6	68	0.00	30.077 
15:35	78.6	78.6	79.9	54	60.5	1	5	90	0.00	30.077 
15:40	78.8	78.8	79.8	50	58.6	2	5	90	0.00	30.077 
15:45	79.0	79.0	80.2	53	60.4	1	6	68	0.00	30.071 
15:50	79.2	79.2	80.2	51	59.5	1	4	112	0.00	30.071 
15:55	79.0	79.0	80.0	50	58.7	2	5	112	0.00	30.071 
16:00	78.8	78.8	80.2	56	61.8	1	4	112	0.00	30.067 
16:05	79.2	79.2	80.0	48	57.8	1	5	68	0.00	30.067 
16:10	79.8	79.8	80.9	53	61.1	1	2	68	0.00	30.067 
16:15	80.3	80.3	81.1	50	59.9	1	2	68	0.00	30.063 
16:20	80.5	80.5	81.2	49	59.6	1	4	90	0.00	30.063 
16:25	80.9	80.9	82.1	54	62.7	1	4	90	0.00	30.063 
16:30	81.1	81.1	81.6	48	59.5	1	3	90	0.00	30.055 
16:35	80.9	80.9	81.5	49	59.9	1	2	90	0.00	30.055 
16:40	80.9	80.9	81.0	44	56.9	1	3	90	0.00	30.055 
16:45	80.5	80.5	81.5	52	61.2	2	4	90	0.00	30.053 
16:50	80.1	80.1	80.7	48	58.6	2	5	90	0.00	30.053 
16:55	79.4	79.4	80.0	46	56.8	2	4	90	0.00	30.053 
17:00	79.0	79.0	79.8	48	57.6	0	1	0	0.00	30.054 
17:05	78.8	78.8	79.7	48	57.4	1	2	45	0.00	30.054 
17:10	78.5	78.5	79.5	49	57.7	0	2	45	0.00	30.054 
17:15	78.1	78.1	79.3	49	57.4	0	0	---	0.00	30.051 
17:20	78.3	78.3	79.6	53	59.7	0	0	---	0.00	30.051 
17:25	78.6	78.6	79.7	50	58.4	0	2	45	0.00	30.051 
17:30	79.2	79.2	79.9	47	57.2	0	1	45	0.00	30.051 
17:35	79.2	79.2	79.9	47	57.2	0	2	45	0.00	30.051 
17:40	79.6	79.6	80.2	47	57.6	0	2	45	0.00	30.051 
17:45	79.9	79.9	80.4	47	57.8	1	3	45	0.00	30.043 
17:50	80.1	80.1	80.5	46	57.4	1	5	45	0.00	30.043 
17:55	79.8	79.8	80.5	48	58.3	2	4	90	0.00	30.043 
18:00	79.4	79.4	80.3	50	59.1	1	4	90	0.00	30.038 
18:05	79.4	79.4	80.2	49	58.5	1	4	90	0.00	30.038 
18:10	79.0	79.0	79.8	48	57.6	2	4	90	0.00	30.038 
18:15	78.8	78.8	79.7	49	58.0	1	4	112	0.00	30.034 
18:20	78.5	78.5	79.4	47	56.6	2	5	112	0.00	30.034 
18:25	78.5	78.5	79.6	50	58.3	1	3	112	0.00	30.034 
18:30	78.5	78.5	79.4	47	56.6	1	3	112	0.00	30.026 
18:35	78.5	78.5	79.6	50	58.3	1	3	112	0.00	30.026 
18:40	78.3	78.3	79.3	48	57.0	0	3	112	0.00	30.026 
18:45	78.3	78.3	79.3	48	57.0	1	3	68	0.00	30.025 
18:50	78.3	78.3	79.3	48	57.0	0	1	68	0.00	30.025 
18:55	78.1	78.1	79.1	46	55.6	0	2	68	0.00	30.025 
19:00	78.1	78.1	79.3	49	57.4	1	2	68	0.00	30.025 
19:05	78.1	78.1	79.3	50	57.9	0	2	68	0.00	30.025 
19:10	77.9	77.9	79.0	47	56.0	1	4	68	0.00	30.025 
19:15	77.9	77.9	79.2	50	57.7	0	2	90	0.00	30.025 
19:20	77.7	77.7	79.0	49	57.0	1	4	90	0.00	30.025 
19:25	77.7	77.7	79.1	51	58.1	1	2	90	0.00	30.025 
19:30	77.7	77.7	79.0	50	57.6	1	4	90	0.00	30.024 
19:35	77.6	77.6	78.9	48	56.3	0	2	112	0.00	30.024 
19:40	77.6	77.6	78.9	48	56.3	1	2	112	0.00	30.024 
19:45	77.4	77.4	78.8	50	57.3	1	3	112	0.00	30.026 
19:50	77.4	77.4	78.8	50	57.3	0	1	112	0.00	30.026 
19:55	77.2	77.2	78.7	51	57.6	1	4	112	0.00	30.026 
20:00	77.0	77.0	78.6	50	56.9	1	2	112	0.00	30.026 
20:05	77.0	77.0	78.6	51	57.5	1	3	112	0.00	30.026 
20:10	76.8	76.8	78.5	51	57.3	0	1	112	0.00	30.026 
20:15	76.5	76.5	78.4	53	58.1	0	1	112	0.00	30.024 
20:20	76.3	76.3	78.2	52	57.4	0	2	112	0.00	30.024 
20:25	76.1	76.1	78.1	52	57.2	0	1	112	0.00	30.024 
20:30	76.0	76.0	78.1	54	58.1	0	1	112	0.00	30.028 
20:35	75.8	75.8	78.0	55	58.5	0	2	112	0.00	30.028 
20:40	75.6	75.6	77.8	55	58.3	0	1	112	0.00	30.028 
20:45	75.3	75.3	77.7	56	58.5	0	0	---	0.00	30.031 
20:50	74.9	74.9	74.9	57	58.6	0	1	112	0.00	30.031 
20:55	74.6	74.6	74.6	58	58.8	0	0	---	0.00	30.031 
21:00	74.0	74.0	74.0	59	58.7	0	0	---	0.00	30.033 
21:05	73.7	73.7	73.7	61	59.4	0	2	112	0.00	30.033 
21:10	73.3	73.3	73.3	61	59.0	0	1	112	0.00	30.033 
21:15	73.0	73.0	73.0	61	58.7	0	2	112	0.00	30.034 
21:20	72.8	72.8	72.8	62	59.0	0	0	---	0.00	30.034 
21:25	72.5	72.5	72.5	62	58.7	0	1	112	0.00	30.034 
21:30	72.3	72.3	72.3	63	59.0	0	1	112	0.00	30.037 
21:35	72.1	72.1	72.1	64	59.2	0	0	---	0.00	30.037 
21:40	71.6	71.6	71.6	65	59.2	0	0	---	0.00	30.037 
21:45	71.3	71.3	71.3	65	58.9	0	0	---	0.00	30.040 
21:50	70.8	70.8	70.8	66	58.9	0	0	---	0.00	30.040 
21:55	70.4	70.4	70.4	67	58.9	0	0	---	0.00	30.040 
22:00	70.1	70.1	70.1	68	59.0	0	0	---	0.00	30.049 
22:05	69.8	69.8	69.8	69	59.2	0	0	---	0.00	30.049 
22:10	69.4	69.4	69.4	70	59.2	0	0	---	0.00	30.049 
22:15	69.1	69.1	69.1	70	58.9	0	0	---	0.00	30.043 
22:20	68.9	68.9	68.9	70	58.7	0	0	---	0.00	30.043 
22:25	68.9	68.9	68.9	70	58.7	0	1	112	0.00	30.043 
22:30	68.9	68.9	68.9	70	58.7	0	0	---	0.00	30.046 
22:35	68.8	68.8	68.8	70	58.6	0	0	---	0.00	30.046 
22:40	68.4	68.4	68.4	71	58.6	0	0	---	0.00	30.046 
22:45	68.3	68.3	68.3	72	58.9	0	0	---	0.00	30.049 
22:50	67.9	67.9	67.9	72	58.5	0	0	---	0.00	30.049 
22:55	67.8	67.8	67.8	73	58.8	0	0	---	0.00	30.049 
23:00	67.4	67.4	67.4	73	58.4	0	0	---	0.00	30.046 
23:05	67.1	67.1	67.1	74	58.5	0	0	---	0.00	30.046 
23:10	66.9	66.9	66.9	74	58.3	0	0	---	0.00	30.046 
23:15	66.8	66.8	66.8	76	59.0	0	0	---	0.00	30.050 
23:20	66.4	66.4	66.4	76	58.6	0	0	---	0.00	30.050 
23:25	66.3	66.3	66.3	77	58.9	0	0	---	0.00	30.050 
23:30	66.1	66.1	66.1	77	58.7	0	0	---	0.00	30.043 
23:35	66.0	66.0	66.0	77	58.6	0	0	---	0.00	30.043 
23:40	65.8	65.8	65.8	77	58.4	0	0	---	0.00	30.043 
23:45	65.6	65.6	65.6	78	58.5	0	0	---	0.00	30.043 
23:50	65.5	65.5	65.5	78	58.5	0	0	---	0.00	30.043 
23:55	65.3	65.3	65.3	78	58.3	0	0	---	0.00	30.043 

CoCoRaHS
IN-AL-39
A2 Web Hosting
Creative Commons License
GoDaddy
Look for:

loaded 2017-12-13 10:17:42 • last modified 2010-11-18 10:43:29
Privacy PolicyDisclaimer
• wx.awcolley.com is powered by PmWiki v.2002016 •
• all content (unless otherwise noted) © 2017 A W Colley